createdAt,value
2019-02-17T00:03:50.584Z,1.00
2019-02-17T00:07:53.973Z,1.10
2019-02-17T00:11:57.365Z,1.60
2019-02-17T00:16:00.714Z,1.80
2019-02-17T00:20:05.224Z,1.90
2019-02-17T00:24:08.614Z,1.90
2019-02-17T00:28:12.014Z,1.80
2019-02-17T00:32:15.492Z,2.20
2019-02-17T00:36:18.933Z,2.40
2019-02-17T00:40:22.368Z,3.10
2019-02-17T00:44:25.825Z,3.00
2019-02-17T00:48:29.272Z,2.50
2019-02-17T00:52:32.740Z,1.90
2019-02-17T00:56:36.181Z,1.90
2019-02-17T01:00:39.536Z,2.10
2019-02-17T01:04:42.927Z,2.40
2019-02-17T01:08:46.273Z,2.60
2019-02-17T01:12:49.662Z,2.60
2019-02-17T01:16:53.000Z,2.20
2019-02-17T01:20:56.368Z,2.10
2019-02-17T01:24:59.763Z,2.70
2019-02-17T01:29:03.153Z,3.60
2019-02-17T01:33:06.501Z,3.90
2019-02-17T01:37:10.247Z,3.80
2019-02-17T01:41:13.653Z,4.20
2019-02-17T01:45:17.562Z,4.30
2019-02-17T01:49:20.946Z,4.30
2019-02-17T01:53:24.355Z,4.40
2019-02-17T01:57:27.749Z,4.40
2019-02-17T02:01:31.126Z,4.40
2019-02-17T02:05:34.514Z,4.50
2019-02-17T02:09:37.839Z,4.40
2019-02-17T02:13:41.269Z,4.40
2019-02-17T02:17:44.741Z,4.40
2019-02-17T02:21:48.054Z,4.50
2019-02-17T02:25:51.373Z,4.30
2019-02-17T02:29:54.719Z,4.30
2019-02-17T02:33:58.043Z,4.40
2019-02-17T02:38:01.435Z,4.50
2019-02-17T02:42:04.814Z,4.60
2019-02-17T02:46:08.213Z,4.40
2019-02-17T02:50:11.678Z,4.30
2019-02-17T02:54:15.073Z,4.20
2019-02-17T02:58:18.463Z,4.40
2019-02-17T03:02:21.763Z,4.30
2019-02-17T03:06:26.865Z,4.20
2019-02-17T03:10:30.185Z,4.20
2019-02-17T03:14:33.574Z,4.20
2019-02-17T03:18:36.976Z,4.40
2019-02-17T03:22:40.338Z,4.40
2019-02-17T03:26:43.656Z,4.40
2019-02-17T03:30:47.064Z,4.30
2019-02-17T03:34:50.455Z,3.80
2019-02-17T03:38:53.855Z,3.30
2019-02-17T03:42:57.220Z,2.90
2019-02-17T03:47:00.634Z,2.50
2019-02-17T03:51:04.002Z,2.30
2019-02-17T03:55:07.416Z,2.30
2019-02-17T03:59:10.793Z,2.10
2019-02-17T04:03:14.163Z,1.90
2019-02-17T04:07:17.579Z,1.80
2019-02-17T04:11:20.962Z,1.70
2019-02-17T04:15:24.286Z,1.60
2019-02-17T04:19:27.679Z,1.50
2019-02-17T04:23:31.779Z,1.50
2019-02-17T04:27:35.256Z,1.50
2019-02-17T04:31:38.655Z,1.40
2019-02-17T04:35:42.054Z,1.40
2019-02-17T04:39:45.445Z,1.30
2019-02-17T04:43:48.820Z,1.30
2019-02-17T04:47:52.209Z,1.30
2019-02-17T04:51:55.535Z,1.30
2019-02-17T04:55:58.926Z,1.30
2019-02-17T05:00:02.389Z,1.30
2019-02-17T05:04:05.763Z,1.30
2019-02-17T05:08:09.159Z,1.10
2019-02-17T05:12:12.546Z,0.90
2019-02-17T05:16:15.947Z,0.70
2019-02-17T05:20:19.458Z,0.60
2019-02-17T05:24:22.845Z,0.60
2019-02-17T05:28:26.229Z,0.60
2019-02-17T05:32:29.651Z,0.70
2019-02-17T05:36:33.136Z,0.60
2019-02-17T05:40:36.828Z,0.60
2019-02-17T05:44:40.330Z,0.50
2019-02-17T05:48:43.759Z,0.40
2019-02-17T05:52:47.152Z,0.30
2019-02-17T05:56:50.539Z,0.30
2019-02-17T06:01:03.306Z,0.30
2019-02-17T06:04:58.941Z,0.40
2019-02-17T06:09:02.268Z,0.50
2019-02-17T06:13:05.776Z,0.50
2019-02-17T06:17:09.174Z,0.50
2019-02-17T06:21:12.566Z,0.50
2019-02-17T06:25:15.940Z,0.50
2019-02-17T06:29:19.342Z,0.50
2019-02-17T06:33:22.766Z,0.50
2019-02-17T06:37:26.181Z,0.40
2019-02-17T06:41:29.831Z,0.20
2019-02-17T06:45:33.229Z,0.10
2019-02-17T06:49:36.777Z,0.10
2019-02-17T06:53:40.204Z,0.20
2019-02-17T06:57:44.383Z,0.30
2019-02-17T07:01:47.775Z,0.50
2019-02-17T07:05:53.009Z,0.60
2019-02-17T07:09:56.389Z,0.70
2019-02-17T07:13:59.781Z,0.80
2019-02-17T07:18:03.118Z,0.80
2019-02-17T07:22:06.489Z,0.90
2019-02-17T07:26:09.814Z,0.90
2019-02-17T07:30:13.216Z,1.00
2019-02-17T07:34:16.791Z,1.10
2019-02-17T07:38:20.199Z,1.30
2019-02-17T07:42:23.595Z,1.60
2019-02-17T07:46:26.994Z,1.80
2019-02-17T07:50:30.393Z,2.20
2019-02-17T07:54:33.803Z,2.50
2019-02-17T07:58:37.235Z,2.70
2019-02-17T08:02:40.606Z,3.10
2019-02-17T08:06:44.083Z,3.20
2019-02-17T08:10:47.721Z,3.40
2019-02-17T08:14:51.386Z,3.60
2019-02-17T08:18:54.812Z,4.20
2019-02-17T08:22:58.198Z,4.70
2019-02-17T08:27:01.855Z,4.90
2019-02-17T08:31:05.309Z,5.30
2019-02-17T08:35:08.835Z,5.70
2019-02-17T08:39:12.238Z,5.90
2019-02-17T08:43:15.609Z,6.40
2019-02-17T08:47:18.974Z,6.60
2019-02-17T08:51:22.415Z,6.70
2019-02-17T08:55:25.806Z,6.90
2019-02-17T08:59:29.266Z,7.00
2019-02-17T09:03:32.643Z,6.70
2019-02-17T09:07:36.042Z,7.00
2019-02-17T09:11:39.437Z,7.20
2019-02-17T09:15:42.884Z,7.60
2019-02-17T09:19:48.031Z,7.50
2019-02-17T09:23:51.436Z,7.60
2019-02-17T09:27:54.811Z,7.90
2019-02-17T09:31:59.434Z,8.20
2019-02-17T09:36:02.967Z,8.60
2019-02-17T09:40:09.027Z,9.00
2019-02-17T09:44:12.418Z,9.00
2019-02-17T09:48:15.842Z,9.10
2019-02-17T09:52:19.230Z,9.40
2019-02-17T09:56:22.649Z,9.20
2019-02-17T10:00:26.050Z,9.30
2019-02-17T10:04:29.428Z,9.50
2019-02-17T10:08:32.820Z,9.30
2019-02-17T10:45:23.148Z,11.00
2019-02-17T10:49:26.539Z,11.10
2019-02-17T10:53:29.953Z,11.10
2019-02-17T10:57:34.095Z,11.10
2019-02-17T11:01:37.468Z,11.00
2019-02-17T11:05:40.865Z,11.10
2019-02-17T11:09:44.282Z,11.20
2019-02-17T11:13:47.763Z,11.40
2019-02-17T11:17:51.170Z,11.50
2019-02-17T11:21:54.663Z,11.50
2019-02-17T11:25:58.184Z,11.70
2019-02-17T11:30:01.616Z,11.90
2019-02-17T11:34:05.091Z,12.00
2019-02-17T11:38:08.546Z,12.20
2019-02-17T11:42:12.018Z,12.30
2019-02-17T11:46:15.468Z,12.30
2019-02-17T11:50:18.871Z,12.50
2019-02-17T11:54:22.278Z,12.60
2019-02-17T11:58:25.683Z,12.80
2019-02-17T12:02:29.088Z,13.00
2019-02-17T12:06:32.559Z,13.10
2019-02-17T12:12:33.723Z,13.30
2019-02-17T12:16:37.435Z,13.40
2019-02-17T12:20:42.500Z,13.50
2019-02-17T12:24:47.374Z,13.60
2019-02-17T12:28:55.342Z,13.60
2019-02-17T12:32:58.671Z,13.60
2019-02-17T12:37:02.138Z,13.70
2019-02-17T12:42:53.539Z,13.80
2019-02-17T12:46:56.982Z,13.70
2019-02-17T12:51:00.391Z,13.60
2019-02-17T12:55:04.018Z,13.60
2019-02-17T12:59:07.451Z,13.60
2019-02-17T13:03:10.850Z,15.80
2019-02-17T13:07:14.274Z,15.00
2019-02-17T13:11:17.648Z,14.20
2019-02-17T13:15:21.058Z,13.90
2019-02-17T13:19:24.710Z,13.90
2019-02-17T13:23:28.158Z,13.90
2019-02-17T13:27:31.564Z,13.90
2019-02-17T13:31:34.942Z,14.10
2019-02-17T13:35:38.533Z,14.20
2019-02-17T13:39:41.972Z,14.30
2019-02-17T13:43:45.363Z,14.30
2019-02-17T13:47:48.926Z,14.20
2019-02-17T13:51:52.367Z,14.20
2019-02-17T13:55:55.836Z,14.10
2019-02-17T13:59:59.239Z,14.20
2019-02-17T14:04:02.647Z,14.20
2019-02-17T14:08:06.114Z,14.30
2019-02-17T14:12:12.648Z,14.20
2019-02-17T14:16:16.094Z,14.20
2019-02-17T14:20:19.649Z,14.10
2019-02-17T14:24:23.102Z,14.00
2019-02-17T14:28:26.715Z,13.90
2019-02-17T14:32:30.352Z,13.90
2019-02-17T14:36:33.935Z,13.90
2019-02-17T14:40:37.380Z,13.70
2019-02-17T14:44:40.859Z,13.50
2019-02-17T14:48:44.299Z,13.40
2019-02-17T14:52:48.013Z,13.20
2019-02-17T14:56:51.443Z,12.90
2019-02-17T15:00:54.862Z,12.70
2019-02-17T15:04:58.555Z,12.40
2019-02-17T15:09:01.958Z,12.00
2019-02-17T15:13:05.267Z,11.80
2019-02-17T15:17:08.827Z,11.70
2019-02-17T15:21:12.226Z,11.60
2019-02-17T15:25:15.624Z,11.60
2019-02-17T15:29:19.026Z,11.20
2019-02-17T15:33:22.410Z,10.80
2019-02-17T15:37:25.896Z,10.60
2019-02-17T15:41:29.290Z,10.40
2019-02-17T15:45:32.702Z,10.30
2019-02-17T15:49:36.102Z,10.30
2019-02-17T15:53:39.498Z,10.20
2019-02-17T15:57:42.884Z,10.10
2019-02-17T16:01:46.389Z,10.00
2019-02-17T16:05:49.717Z,9.90
2019-02-17T16:09:53.115Z,9.90
2019-02-17T16:13:56.489Z,9.60
2019-02-17T16:17:59.874Z,9.50
2019-02-17T16:22:03.285Z,9.40
2019-02-17T16:26:06.694Z,9.20
2019-02-17T16:30:18.822Z,9.10
2019-02-17T16:34:22.179Z,8.90
2019-02-17T16:38:25.554Z,8.70
2019-02-17T16:42:28.876Z,8.30
2019-02-17T16:46:32.265Z,8.10
2019-02-17T16:50:35.591Z,8.00
2019-02-17T16:54:38.958Z,7.80
2019-02-17T16:58:42.331Z,7.70
2019-02-17T17:02:45.733Z,7.60
2019-02-17T17:06:49.132Z,7.50
2019-02-17T17:10:52.525Z,7.30
2019-02-17T17:14:55.905Z,7.20
2019-02-17T17:18:59.295Z,7.00
2019-02-17T17:23:02.690Z,6.80
2019-02-17T17:27:07.732Z,6.70
2019-02-17T17:31:11.152Z,6.40
2019-02-17T17:35:14.532Z,6.30
2019-02-17T17:39:17.853Z,6.20
2019-02-17T17:43:21.247Z,5.90
2019-02-17T17:47:24.642Z,5.50
2019-02-17T17:51:28.033Z,5.50
2019-02-17T17:55:31.418Z,5.50
2019-02-17T17:59:34.798Z,5.50
2019-02-17T18:03:38.127Z,5.40
2019-02-17T18:07:41.525Z,5.40
2019-02-17T18:11:44.942Z,5.40
2019-02-17T18:15:48.319Z,5.30
2019-02-17T18:19:51.685Z,5.20
2019-02-17T18:23:55.082Z,5.20
2019-02-17T18:27:58.478Z,5.00
2019-02-17T18:32:01.873Z,4.90
2019-02-17T18:36:05.246Z,4.90
2019-02-17T18:40:11.362Z,4.80
2019-02-17T18:44:14.761Z,4.80
2019-02-17T18:48:18.157Z,4.70
2019-02-17T18:52:21.566Z,4.70
2019-02-17T18:56:24.919Z,4.60
2019-02-17T19:00:28.295Z,4.60
2019-02-17T19:04:31.691Z,4.50
2019-02-17T19:08:35.082Z,4.40
2019-02-17T19:12:38.490Z,4.10
2019-02-17T19:16:41.854Z,3.70
2019-02-17T19:20:45.615Z,3.50
2019-02-17T19:24:49.196Z,3.40
2019-02-17T19:28:52.855Z,3.40
2019-02-17T19:32:56.451Z,3.30
2019-02-17T19:37:00.022Z,3.20
2019-02-17T19:41:03.602Z,3.20
2019-02-17T19:45:18.010Z,3.30
2019-02-17T19:49:21.438Z,3.40
2019-02-17T19:53:24.970Z,3.30
2019-02-17T19:57:28.578Z,3.30
2019-02-17T20:01:34.243Z,3.10
2019-02-17T20:05:51.712Z,3.20
2019-02-17T20:09:49.344Z,3.30
2019-02-17T20:13:52.869Z,3.20
2019-02-17T20:17:56.498Z,3.20
2019-02-17T20:22:00.059Z,3.10
2019-02-17T20:26:03.639Z,3.00
2019-02-17T20:30:12.250Z,3.10
2019-02-17T20:34:16.023Z,2.80
2019-02-17T20:38:19.651Z,2.60
2019-02-17T20:42:23.287Z,2.70
2019-02-17T20:46:26.974Z,2.70
2019-02-17T20:50:30.434Z,2.90
2019-02-17T20:54:33.843Z,3.20
2019-02-17T20:58:37.255Z,3.40
2019-02-17T21:02:40.647Z,3.50
2019-02-17T21:06:44.033Z,3.70
2019-02-17T21:10:47.359Z,3.80
2019-02-17T21:14:50.763Z,3.90
2019-02-17T21:18:54.163Z,3.90
2019-02-17T21:22:57.533Z,3.90
2019-02-17T21:27:00.910Z,3.60
2019-02-17T21:31:04.310Z,3.50
2019-02-17T21:35:10.806Z,3.30
2019-02-17T21:39:14.194Z,3.20
2019-02-17T21:43:17.590Z,3.00
2019-02-17T21:47:20.962Z,2.90
2019-02-17T21:51:24.391Z,2.90
2019-02-17T21:55:27.788Z,2.70
2019-02-17T21:59:31.263Z,2.70
2019-02-17T22:03:34.663Z,2.60
2019-02-17T22:07:38.083Z,2.60
2019-02-17T22:11:41.588Z,2.70
2019-02-17T22:15:45.033Z,2.60
2019-02-17T22:19:48.553Z,2.50
2019-02-17T22:23:51.938Z,2.40
2019-02-17T22:27:55.256Z,2.30
2019-02-17T22:31:58.656Z,2.30
2019-02-17T22:36:02.040Z,2.20
2019-02-17T22:40:10.703Z,2.20
2019-02-17T22:44:14.230Z,2.20
2019-02-17T22:48:17.610Z,2.20
2019-02-17T22:52:21.006Z,2.10
2019-02-17T22:56:24.659Z,2.00
2019-02-17T23:00:34.882Z,1.90
2019-02-17T23:04:38.294Z,1.80
2019-02-17T23:08:41.698Z,1.70
2019-02-17T23:12:45.066Z,1.70
2019-02-17T23:16:48.462Z,1.80
2019-02-17T23:20:51.842Z,1.60
2019-02-17T23:24:55.246Z,1.40
2019-02-17T23:28:58.613Z,1.20
2019-02-17T23:33:01.997Z,1.00
2019-02-17T23:37:05.388Z,1.10
2019-02-17T23:41:08.780Z,1.10
2019-02-17T23:45:13.314Z,1.20
2019-02-17T23:49:16.680Z,1.30
2019-02-17T23:53:20.167Z,1.40
2019-02-17T23:57:23.581Z,1.50
